Delta Virtual Airport Information Service

Jersey Airport

ICAO: EGJJ Country: United Kingdom
Latitude: 49.2079 Longitude: -2.1955
Latest Arrival : DAC2345 (EGKK-EGJJ) Latest Departure : DAC5566 (EGJJ-LGSK)


WX CaptureLIVE
Data provided by noaa.gov | Fetched at 17:00:23

METAR : EGJJ 242150Z AUTO 34005KT 9999 NCD 11/09 Q1034

TAF :


Runway Data for EGJJ
Data provided by openaviationdata.com

Runway ID Mag Var Hdg Length Elevation Surface ILS Freq ILS Id ILS Slope
9 -1 84° 5593 ft 277 ft Asphalt 110.9 IJJ 3
27 -1 264° 5593 ft 277 ft Asphalt 110.3 IDD 3

Jersey Airport, United Kingdom
Use only for reference purposes



Not for navigational purposes.